createdAt,value
2023-04-18T00:00:12.606Z,31.75
2023-04-18T00:02:44.062Z,32.00
2023-04-18T00:05:18.238Z,30.58
2023-04-18T00:07:46.129Z,31.48
2023-04-18T00:10:13.685Z,31.63
2023-04-18T00:12:41.171Z,35.13
2023-04-18T00:15:09.522Z,32.42
2023-04-18T00:17:40.159Z,30.10
2023-04-18T00:20:12.570Z,35.10
2023-04-18T00:22:42.540Z,30.83
2023-04-18T00:25:11.161Z,32.85
2023-04-18T00:27:41.908Z,30.92
2023-04-18T00:30:10.027Z,40.17
2023-04-18T00:32:38.660Z,32.92
2023-04-18T00:35:06.606Z,30.80
2023-04-18T00:37:33.942Z,31.30
2023-04-18T00:40:01.251Z,34.03
2023-04-18T00:42:29.479Z,33.28
2023-04-18T00:44:56.783Z,35.67
2023-04-18T00:47:24.245Z,35.58
2023-04-18T00:49:51.815Z,32.50
2023-04-18T00:52:19.928Z,35.70
2023-04-18T00:54:47.711Z,33.35
2023-04-18T00:57:15.132Z,33.88
2023-04-18T00:59:43.245Z,33.95
2023-04-18T01:02:11.198Z,37.92
2023-04-18T01:04:38.985Z,31.63
2023-04-18T01:07:10.258Z,34.90
2023-04-18T01:09:37.937Z,35.15
2023-04-18T01:12:06.072Z,34.42
2023-04-18T01:14:33.328Z,31.48
2023-04-18T01:17:01.482Z,33.35
2023-04-18T01:19:28.730Z,32.15
2023-04-18T01:21:56.170Z,35.90
2023-04-18T01:24:25.772Z,37.28
2023-04-18T01:26:53.209Z,35.70
2023-04-18T01:29:20.610Z,35.80
2023-04-18T01:31:48.570Z,39.55
2023-04-18T01:34:18.695Z,33.50
2023-04-18T01:36:46.931Z,36.58
2023-04-18T01:39:14.712Z,33.70
2023-04-18T01:41:42.864Z,32.92
2023-04-18T01:44:10.538Z,37.50
2023-04-18T01:46:38.762Z,38.85
2023-04-18T01:49:06.684Z,37.25
2023-04-18T01:51:34.065Z,36.60
2023-04-18T01:54:01.348Z,38.17
2023-04-18T01:56:28.606Z,38.53
2023-04-18T01:58:58.534Z,43.53
2023-04-18T02:01:25.802Z,42.60
2023-04-18T02:03:53.398Z,37.00
2023-04-18T02:06:20.853Z,38.72
2023-04-18T02:08:48.613Z,39.45
2023-04-18T02:11:16.065Z,41.85
2023-04-18T02:13:43.348Z,41.33
2023-04-18T02:16:14.036Z,40.45
2023-04-18T02:18:44.329Z,36.67
2023-04-18T02:21:11.840Z,43.47
2023-04-18T02:23:39.182Z,40.70
2023-04-18T02:26:06.592Z,41.38
2023-04-18T02:28:34.213Z,38.83
2023-04-18T02:31:03.835Z,39.17
2023-04-18T02:33:31.180Z,40.20
2023-04-18T02:35:58.422Z,42.40
2023-04-18T02:38:25.695Z,37.35
2023-04-18T02:40:53.029Z,37.58
2023-04-18T02:43:21.361Z,38.38
2023-04-18T02:45:48.767Z,38.90
2023-04-18T02:48:16.143Z,40.33
2023-04-18T02:50:45.872Z,36.63
2023-04-18T02:53:13.462Z,38.53
2023-04-18T02:55:50.955Z,36.30
2023-04-18T02:58:19.446Z,38.13
2023-04-18T03:00:56.577Z,40.13
2023-04-18T03:03:42.110Z,37.25
2023-04-18T03:06:38.568Z,35.90
2023-04-18T03:09:07.295Z,36.53
2023-04-18T03:11:37.694Z,32.40
2023-04-18T03:14:06.801Z,31.77
2023-04-18T03:16:42.004Z,30.75
2023-04-18T03:19:12.532Z,31.40
2023-04-18T03:21:39.995Z,31.02
2023-04-18T03:24:07.933Z,32.45
2023-04-18T03:26:36.541Z,33.05
2023-04-18T03:29:03.941Z,36.90
2023-04-18T03:31:32.086Z,35.42
2023-04-18T03:33:59.387Z,34.10
2023-04-18T03:36:29.182Z,32.88
2023-04-18T03:38:56.772Z,38.17
2023-04-18T03:41:25.180Z,36.30
2023-04-18T03:43:52.577Z,38.40
2023-04-18T03:46:21.928Z,36.28
2023-04-18T03:48:51.873Z,41.10
2023-04-18T03:51:19.201Z,42.80
2023-04-18T03:53:47.205Z,48.50
2023-04-18T03:56:14.528Z,38.55
2023-04-18T03:58:52.892Z,46.45
2023-04-18T04:01:21.804Z,43.58
2023-04-18T04:03:51.541Z,41.70
2023-04-18T04:06:19.205Z,41.08
2023-04-18T04:08:46.561Z,40.33
2023-04-18T04:11:17.580Z,43.88
2023-04-18T04:13:45.243Z,41.88
2023-04-18T04:16:15.148Z,45.22
2023-04-18T04:18:42.715Z,46.85
2023-04-18T04:21:10.246Z,43.75
2023-04-18T04:23:46.248Z,46.78
2023-04-18T04:26:26.097Z,46.72
2023-04-18T04:29:03.501Z,38.67
2023-04-18T04:31:32.432Z,43.28
2023-04-18T04:33:59.772Z,41.38
2023-04-18T04:36:27.264Z,41.10
2023-04-18T04:38:56.809Z,40.33
2023-04-18T04:41:32.228Z,44.60
2023-04-18T04:44:01.754Z,43.40
2023-04-18T04:46:32.532Z,42.17
2023-04-18T04:49:01.224Z,40.90
2023-04-18T04:51:28.576Z,42.53
2023-04-18T04:53:56.522Z,42.13
2023-04-18T04:56:24.291Z,43.60
2023-04-18T04:58:53.077Z,39.47
2023-04-18T05:01:34.488Z,35.40
2023-04-18T05:04:01.945Z,41.55
2023-04-18T05:06:29.685Z,41.53
2023-04-18T05:08:59.523Z,41.70
2023-04-18T05:11:27.537Z,42.10
2023-04-18T05:13:54.965Z,43.05
2023-04-18T05:16:22.298Z,40.38
2023-04-18T05:18:49.566Z,38.22
2023-04-18T05:21:16.804Z,44.22
2023-04-18T05:23:44.164Z,39.42
2023-04-18T05:26:11.535Z,39.72
2023-04-18T05:28:38.946Z,37.30
2023-04-18T05:31:06.363Z,40.80
2023-04-18T05:33:33.762Z,39.72
2023-04-18T05:36:01.947Z,35.65
2023-04-18T05:38:29.251Z,41.05
2023-04-18T05:40:57.064Z,42.30
2023-04-18T05:43:24.359Z,36.58
2023-04-18T05:45:57.655Z,36.75
2023-04-18T05:48:25.277Z,38.88
2023-04-18T05:50:52.735Z,33.22
2023-04-18T05:53:20.116Z,33.45
2023-04-18T05:55:48.791Z,33.60
2023-04-18T05:58:16.239Z,38.10
2023-04-18T06:00:44.091Z,31.17
2023-04-18T06:03:11.798Z,32.53
2023-04-18T06:05:41.371Z,35.15
2023-04-18T06:08:12.061Z,31.33
2023-04-18T06:10:39.462Z,31.48
2023-04-18T06:13:15.195Z,36.90
2023-04-18T06:15:45.632Z,36.85
2023-04-18T06:18:12.996Z,39.65
2023-04-18T06:20:42.003Z,35.55
2023-04-18T06:23:09.468Z,37.25
2023-04-18T06:25:36.892Z,39.67
2023-04-18T06:28:04.227Z,35.25
2023-04-18T06:30:31.581Z,37.28
2023-04-18T06:32:58.909Z,37.00
2023-04-18T06:35:26.780Z,36.80
2023-04-18T06:37:54.486Z,39.15
2023-04-18T06:40:21.834Z,36.70
2023-04-18T06:42:49.230Z,36.78
2023-04-18T06:45:16.586Z,35.80
2023-04-18T06:47:44.164Z,37.22
2023-04-18T06:50:11.609Z,41.22
2023-04-18T06:52:42.500Z,37.95
2023-04-18T06:55:10.931Z,34.08
2023-04-18T06:57:42.478Z,47.50
2023-04-18T07:00:10.682Z,40.92
2023-04-18T07:02:39.165Z,39.17
2023-04-18T07:05:07.933Z,42.85
2023-04-18T07:07:35.926Z,35.00
2023-04-18T07:10:03.532Z,38.40
2023-04-18T07:12:30.852Z,34.92
2023-04-18T07:14:58.126Z,36.28
2023-04-18T07:17:25.547Z,36.58
2023-04-18T07:19:52.875Z,34.38
2023-04-18T07:22:20.266Z,36.80
2023-04-18T07:24:47.552Z,38.17
2023-04-18T07:27:15.423Z,35.85
2023-04-18T07:29:42.778Z,35.15
2023-04-18T07:32:11.350Z,34.97
2023-04-18T07:34:40.229Z,36.15
2023-04-18T07:37:07.670Z,38.83
2023-04-18T07:39:36.149Z,37.17
2023-04-18T07:42:04.712Z,35.90
2023-04-18T07:44:32.054Z,31.08
2023-04-18T07:47:00.786Z,34.70
2023-04-18T07:49:28.152Z,33.70
2023-04-18T07:51:55.859Z,35.13
2023-04-18T07:54:23.146Z,34.08
2023-04-18T07:56:50.440Z,30.92
2023-04-18T07:59:21.156Z,34.00
2023-04-18T08:01:48.470Z,30.85
2023-04-18T08:04:15.869Z,33.25
2023-04-18T08:06:43.343Z,31.15
2023-04-18T08:09:12.023Z,31.33
2023-04-18T08:11:41.262Z,31.08
2023-04-18T08:14:08.886Z,32.15
2023-04-18T08:16:36.861Z,29.00
2023-04-18T08:19:04.713Z,29.83
2023-04-18T08:21:32.495Z,30.95
2023-04-18T08:23:59.935Z,29.17
2023-04-18T08:26:27.736Z,27.17
2023-04-18T08:28:55.140Z,27.75
2023-04-18T08:31:22.489Z,26.40
2023-04-18T08:33:49.872Z,27.60
2023-04-18T08:36:17.509Z,25.75
2023-04-18T08:38:44.830Z,29.20
2023-04-18T08:41:12.189Z,24.65
2023-04-18T08:43:39.487Z,27.05
2023-04-18T08:46:07.922Z,30.35
2023-04-18T08:48:35.351Z,26.65
2023-04-18T08:51:03.057Z,29.77
2023-04-18T08:53:33.259Z,27.42
2023-04-18T08:56:02.071Z,28.92
2023-04-18T08:58:33.546Z,29.48
2023-04-18T09:01:00.942Z,27.70
2023-04-18T09:03:38.919Z,34.53
2023-04-18T09:06:21.251Z,28.55
2023-04-18T09:08:59.219Z,27.10
2023-04-18T09:11:29.372Z,34.22
2023-04-18T09:13:58.908Z,29.92
2023-04-18T09:16:27.749Z,27.15
2023-04-18T09:19:25.937Z,28.85
2023-04-18T09:22:01.896Z,30.08
2023-04-18T09:24:30.509Z,33.60
2023-04-18T09:26:59.709Z,30.08
2023-04-18T09:29:46.132Z,28.00
2023-04-18T09:32:29.264Z,27.85
2023-04-18T09:35:04.617Z,31.75
2023-04-18T09:37:32.453Z,27.45
2023-04-18T09:39:59.986Z,30.48
2023-04-18T09:42:39.614Z,32.35
2023-04-18T09:45:09.252Z,28.88
2023-04-18T09:47:37.447Z,31.55
2023-04-18T09:50:06.613Z,34.33
2023-04-18T09:52:36.465Z,33.67
2023-04-18T09:55:06.609Z,32.63
2023-04-18T09:57:35.673Z,32.55
2023-04-18T10:00:21.415Z,30.83
2023-04-18T10:03:08.854Z,33.50
2023-04-18T10:05:39.047Z,33.65
2023-04-18T10:08:08.009Z,31.88
2023-04-18T10:10:37.922Z,34.85
2023-04-18T10:13:11.112Z,28.58
2023-04-18T10:15:39.147Z,27.52
2023-04-18T10:18:14.117Z,28.27
2023-04-18T10:20:42.828Z,31.92
2023-04-18T10:23:32.142Z,25.70
2023-04-18T10:26:00.022Z,28.98
2023-04-18T10:28:28.209Z,29.27
2023-04-18T10:31:04.015Z,29.50
2023-04-18T10:33:42.387Z,32.30
2023-04-18T10:36:12.601Z,28.30
2023-04-18T10:39:00.144Z,35.33
2023-04-18T10:41:32.204Z,33.30
2023-04-18T10:44:09.128Z,30.67
2023-04-18T10:46:53.908Z,35.95
2023-04-18T10:49:24.010Z,32.78
2023-04-18T10:52:13.269Z,34.00
2023-04-18T10:55:05.543Z,32.05
2023-04-18T10:57:42.596Z,36.60
2023-04-18T11:00:13.810Z,32.22
2023-04-18T11:02:48.181Z,36.00
2023-04-18T11:05:20.884Z,38.92
2023-04-18T11:07:49.021Z,36.33
2023-04-18T11:10:24.559Z,34.45
2023-04-18T11:12:52.902Z,37.80
2023-04-18T11:15:25.286Z,36.70
2023-04-18T11:18:03.163Z,33.80
2023-04-18T11:20:46.008Z,31.52
2023-04-18T11:23:55.043Z,33.67
2023-04-18T11:26:37.212Z,33.05
2023-04-18T11:29:09.315Z,30.75
2023-04-18T11:31:39.092Z,32.00
2023-04-18T11:34:06.449Z,33.00
2023-04-18T11:36:38.054Z,31.17
2023-04-18T11:39:06.342Z,35.65
2023-04-18T11:41:33.650Z,36.75
2023-04-18T11:44:05.694Z,34.95
2023-04-18T11:46:39.651Z,29.63
2023-04-18T11:49:07.029Z,32.38
2023-04-18T11:51:44.640Z,33.20
2023-04-18T11:54:45.508Z,30.25
2023-04-18T11:57:31.942Z,32.22
2023-04-18T12:00:01.507Z,31.48
2023-04-18T12:02:44.450Z,30.00
2023-04-18T12:05:15.054Z,28.83
2023-04-18T12:07:45.168Z,31.48
2023-04-18T12:10:30.928Z,29.98
2023-04-18T12:12:59.564Z,30.42
2023-04-18T12:15:30.827Z,31.90
2023-04-18T12:18:04.794Z,30.80
2023-04-18T12:20:51.539Z,34.22
2023-04-18T12:23:41.847Z,33.78
2023-04-18T12:26:15.142Z,32.75
2023-04-18T12:28:46.419Z,31.40
2023-04-18T12:31:13.752Z,33.72
2023-04-18T12:33:41.046Z,33.53
2023-04-18T12:36:10.547Z,30.08
2023-04-18T12:38:38.361Z,30.27
2023-04-18T12:41:05.940Z,31.42
2023-04-18T12:43:33.204Z,29.83
2023-04-18T12:46:00.695Z,31.73
2023-04-18T12:48:29.297Z,31.48
2023-04-18T12:50:56.644Z,33.38
2023-04-18T12:53:23.976Z,31.73
2023-04-18T12:55:54.449Z,29.38
2023-04-18T12:58:23.935Z,27.95
2023-04-18T13:00:51.448Z,29.83
2023-04-18T13:03:18.998Z,29.90
2023-04-18T13:05:46.696Z,30.10
2023-04-18T13:08:17.587Z,31.88
2023-04-18T13:10:47.372Z,29.45
2023-04-18T13:13:14.745Z,30.70
2023-04-18T13:15:42.847Z,30.58
2023-04-18T13:18:10.604Z,31.08
2023-04-18T13:20:38.012Z,30.50
2023-04-18T13:23:08.645Z,29.75
2023-04-18T13:25:36.084Z,33.67
2023-04-18T13:28:03.631Z,24.85
2023-04-18T13:30:31.894Z,27.35
2023-04-18T13:32:59.349Z,29.35
2023-04-18T13:35:26.764Z,27.23
2023-04-18T13:37:54.073Z,23.95
2023-04-18T13:40:21.387Z,26.60
2023-04-18T13:42:48.663Z,25.75
2023-04-18T13:45:16.120Z,23.98
2023-04-18T13:47:46.477Z,22.55
2023-04-18T13:50:13.886Z,23.75
2023-04-18T13:52:41.154Z,25.08
2023-04-18T13:55:10.510Z,24.42
2023-04-18T13:57:37.891Z,25.73
2023-04-18T14:00:06.610Z,22.65
2023-04-18T14:02:39.491Z,24.33
2023-04-18T14:05:07.680Z,25.45
2023-04-18T14:07:35.401Z,25.40
2023-04-18T14:10:02.759Z,24.98
2023-04-18T14:12:30.062Z,27.33
2023-04-18T14:14:57.492Z,21.65
2023-04-18T14:17:24.912Z,23.75
2023-04-18T14:19:52.241Z,23.55
2023-04-18T14:22:19.621Z,22.42
2023-04-18T14:24:46.944Z,21.40
2023-04-18T14:27:14.322Z,22.88
2023-04-18T14:29:41.653Z,18.52
2023-04-18T14:32:08.948Z,18.25
2023-04-18T14:34:37.411Z,18.10
2023-04-18T14:37:06.291Z,18.83
2023-04-18T14:39:33.637Z,18.80
2023-04-18T14:42:01.477Z,19.65
2023-04-18T14:44:30.494Z,17.85
2023-04-18T14:46:57.872Z,22.30
2023-04-18T14:49:25.207Z,17.77
2023-04-18T14:51:52.441Z,17.90
2023-04-18T14:54:19.758Z,18.17
2023-04-18T14:56:47.122Z,17.73
2023-04-18T14:59:16.553Z,17.95
2023-04-18T15:01:44.202Z,20.65
2023-04-18T15:04:11.639Z,18.52
2023-04-18T15:06:39.236Z,20.42
2023-04-18T15:09:06.938Z,20.23
2023-04-18T15:11:34.266Z,16.90
2023-04-18T15:14:01.863Z,18.55
2023-04-18T15:16:29.246Z,20.85
2023-04-18T15:18:56.522Z,20.65
2023-04-18T15:21:23.823Z,18.40
2023-04-18T15:23:51.167Z,17.38
2023-04-18T15:26:18.488Z,23.15
2023-04-18T15:28:46.469Z,23.48
2023-04-18T15:31:15.536Z,22.80
2023-04-18T15:33:42.814Z,22.75
2023-04-18T15:36:16.762Z,22.80
2023-04-18T15:38:44.486Z,29.10
2023-04-18T15:41:11.907Z,25.00
2023-04-18T15:43:42.043Z,25.33
2023-04-18T15:46:10.207Z,26.80
2023-04-18T15:48:37.843Z,26.15
2023-04-18T15:51:05.338Z,24.85
2023-04-18T15:53:34.136Z,25.83
2023-04-18T15:56:01.823Z,27.70
2023-04-18T15:58:30.235Z,27.02
2023-04-18T16:00:57.738Z,28.52
2023-04-18T16:03:25.482Z,27.52
2023-04-18T16:05:53.387Z,26.05
2023-04-18T16:08:21.272Z,24.55
2023-04-18T16:10:48.592Z,24.80
2023-04-18T16:13:16.063Z,26.92
2023-04-18T16:15:43.406Z,26.65
2023-04-18T16:18:10.960Z,28.38
2023-04-18T16:20:38.348Z,25.40
2023-04-18T16:23:05.886Z,26.08
2023-04-18T16:25:33.198Z,31.35
2023-04-18T16:28:00.571Z,24.92
2023-04-18T16:30:27.978Z,28.13
2023-04-18T16:32:55.445Z,29.40
2023-04-18T16:35:23.031Z,29.40
2023-04-18T16:37:50.308Z,26.77
2023-04-18T16:40:17.645Z,26.40
2023-04-18T16:42:44.997Z,26.83
2023-04-18T16:45:12.640Z,28.80
2023-04-18T16:47:39.978Z,30.30
2023-04-18T16:50:08.087Z,27.65
2023-04-18T16:52:35.425Z,32.47
2023-04-18T16:55:02.817Z,25.85
2023-04-18T16:57:30.124Z,25.95
2023-04-18T16:59:58.239Z,27.00
2023-04-18T17:02:25.702Z,28.30
2023-04-18T17:04:53.108Z,26.63
2023-04-18T17:07:20.559Z,26.70
2023-04-18T17:09:47.906Z,23.45
2023-04-18T17:12:15.569Z,23.75
2023-04-18T17:14:42.872Z,26.83
2023-04-18T17:17:10.534Z,28.63
2023-04-18T17:19:37.782Z,24.02
2023-04-18T17:22:05.399Z,23.00
2023-04-18T17:24:32.853Z,26.58
2023-04-18T17:27:01.168Z,24.95
2023-04-18T17:29:28.500Z,31.13
2023-04-18T17:31:56.320Z,25.42
2023-04-18T17:34:23.652Z,28.85
2023-04-18T17:36:50.953Z,24.02
2023-04-18T17:39:18.315Z,26.90
2023-04-18T17:41:46.575Z,22.98
2023-04-18T17:44:13.969Z,21.83
2023-04-18T17:46:41.301Z,28.52
2023-04-18T17:49:08.689Z,22.38
2023-04-18T17:51:36.101Z,21.70
2023-04-18T17:54:05.071Z,27.38
2023-04-18T17:56:32.687Z,24.60
2023-04-18T17:59:01.054Z,21.73
2023-04-18T18:01:30.486Z,25.98
2023-04-18T18:03:58.795Z,24.70
2023-04-18T18:06:29.663Z,23.27
2023-04-18T18:08:57.458Z,23.33
2023-04-18T18:11:27.193Z,20.80
2023-04-18T18:13:55.460Z,24.45
2023-04-18T18:16:24.673Z,26.40
2023-04-18T18:18:52.845Z,19.98
2023-04-18T18:21:20.694Z,18.13
2023-04-18T18:23:49.285Z,23.05
2023-04-18T18:26:17.400Z,23.55
2023-04-18T18:28:45.106Z,24.35
2023-04-18T18:31:12.939Z,23.52
2023-04-18T18:33:40.525Z,27.63
2023-04-18T18:36:07.879Z,24.05
2023-04-18T18:38:36.273Z,23.45
2023-04-18T18:41:04.896Z,23.42
2023-04-18T18:43:33.433Z,22.30
2023-04-18T18:46:01.233Z,21.90
2023-04-18T18:48:31.130Z,24.60
2023-04-18T18:50:58.742Z,24.92
2023-04-18T18:53:26.331Z,30.75
2023-04-18T18:55:53.895Z,27.42
2023-04-18T18:58:21.844Z,29.23
2023-04-18T19:00:51.602Z,25.65
2023-04-18T19:03:21.276Z,22.25
2023-04-18T19:05:49.169Z,23.23
2023-04-18T19:08:17.323Z,27.13
2023-04-18T19:10:45.018Z,26.52
2023-04-18T19:13:12.627Z,28.00
2023-04-18T19:15:40.537Z,25.75
2023-04-18T19:18:08.624Z,27.05
2023-04-18T19:20:39.084Z,23.23
2023-04-18T19:23:06.775Z,25.98
2023-04-18T19:25:34.497Z,22.45
2023-04-18T19:28:02.110Z,27.77
2023-04-18T19:30:29.742Z,21.63
2023-04-18T19:32:59.534Z,21.80
2023-04-18T19:35:27.463Z,29.13
2023-04-18T19:38:01.522Z,26.75
2023-04-18T19:40:30.035Z,29.55
2023-04-18T19:42:58.084Z,26.95
2023-04-18T19:45:26.073Z,31.05
2023-04-18T19:47:53.707Z,28.45
2023-04-18T19:50:21.392Z,27.98
2023-04-18T19:52:49.048Z,27.52
2023-04-18T19:55:16.592Z,27.80
2023-04-18T19:57:44.467Z,32.50
2023-04-18T20:00:14.103Z,29.05
2023-04-18T20:02:42.900Z,33.10
2023-04-18T20:05:10.834Z,30.88
2023-04-18T20:07:38.577Z,30.40
2023-04-18T20:10:08.832Z,35.88
2023-04-18T20:12:36.669Z,30.00
2023-04-18T20:15:05.720Z,33.78
2023-04-18T20:17:34.731Z,31.98
2023-04-18T20:20:03.171Z,31.65
2023-04-18T20:22:32.382Z,32.65
2023-04-18T20:25:01.144Z,27.38
2023-04-18T20:27:28.803Z,27.80
2023-04-18T20:29:57.307Z,37.80
2023-04-18T20:32:25.111Z,34.70
2023-04-18T20:34:52.562Z,33.25
2023-04-18T20:37:20.167Z,33.47
2023-04-18T20:39:47.737Z,34.83
2023-04-18T20:42:15.712Z,29.92
2023-04-18T20:44:44.662Z,27.58
2023-04-18T20:47:14.734Z,27.50
2023-04-18T20:49:43.027Z,32.75
2023-04-18T20:52:10.632Z,31.02
2023-04-18T20:54:38.008Z,32.33
2023-04-18T20:57:05.499Z,33.88
2023-04-18T20:59:32.814Z,30.75
2023-04-18T21:02:00.277Z,30.52
2023-04-18T21:04:27.888Z,30.50
2023-04-18T21:06:55.374Z,31.40
2023-04-18T21:09:23.028Z,31.35
2023-04-18T21:11:50.310Z,32.08
2023-04-18T21:14:17.842Z,35.13
2023-04-18T21:16:45.197Z,36.63
2023-04-18T21:19:12.779Z,35.47
2023-04-18T21:21:40.379Z,32.45
2023-04-18T21:24:07.733Z,37.25
2023-04-18T21:26:35.105Z,35.40
2023-04-18T21:29:04.719Z,26.83
2023-04-18T21:31:34.356Z,30.77
2023-04-18T21:34:04.466Z,34.60
2023-04-18T21:36:32.200Z,28.95
2023-04-18T21:39:00.931Z,38.63
2023-04-18T21:41:28.430Z,31.33
2023-04-18T21:43:55.782Z,33.70
2023-04-18T21:46:23.182Z,32.10
2023-04-18T21:48:50.613Z,33.70
2023-04-18T21:51:18.208Z,29.50
2023-04-18T21:53:45.818Z,29.67
2023-04-18T21:56:14.046Z,28.50
2023-04-18T21:58:41.343Z,27.23
2023-04-18T22:01:08.720Z,25.38
2023-04-18T22:03:37.411Z,21.75
2023-04-18T22:06:05.163Z,25.90
2023-04-18T22:08:32.988Z,22.67
2023-04-18T22:11:00.336Z,24.13
2023-04-18T22:13:33.141Z,21.13
2023-04-18T22:16:03.458Z,19.30
2023-04-18T22:18:37.901Z,22.88
2023-04-18T22:21:06.104Z,20.73
2023-04-18T22:23:33.437Z,21.33
2023-04-18T22:26:00.946Z,22.00
2023-04-18T22:28:28.623Z,24.55
2023-04-18T22:30:56.068Z,25.15
2023-04-18T22:33:23.572Z,23.27
2023-04-18T22:35:50.978Z,28.58
2023-04-18T22:38:18.455Z,30.25
2023-04-18T22:40:45.851Z,23.30
2023-04-18T22:43:13.113Z,22.35
2023-04-18T22:45:40.561Z,22.25
2023-04-18T22:48:11.417Z,18.65
2023-04-18T22:50:42.804Z,19.67
2023-04-18T22:53:11.161Z,19.08
2023-04-18T22:55:40.268Z,25.08
2023-04-18T22:58:08.014Z,23.90
2023-04-18T23:00:35.795Z,22.30
2023-04-18T23:03:03.750Z,18.48
2023-04-18T23:05:31.241Z,20.42
2023-04-18T23:08:00.338Z,21.83
2023-04-18T23:10:28.179Z,20.33
2023-04-18T23:12:55.795Z,19.40
2023-04-18T23:15:23.147Z,23.15
2023-04-18T23:17:53.063Z,28.25
2023-04-18T23:20:21.370Z,25.35
2023-04-18T23:22:51.351Z,22.83
2023-04-18T23:25:19.615Z,26.08
2023-04-18T23:27:47.303Z,23.73
2023-04-18T23:30:14.758Z,27.70
2023-04-18T23:32:42.214Z,25.48
2023-04-18T23:35:10.465Z,23.52
2023-04-18T23:37:37.816Z,19.85
2023-04-18T23:40:06.651Z,18.70
2023-04-18T23:42:34.790Z,21.83
2023-04-18T23:45:03.923Z,17.52
2023-04-18T23:47:31.567Z,16.90
2023-04-18T23:49:58.969Z,17.40
2023-04-18T23:52:26.502Z,21.25
2023-04-18T23:54:53.918Z,18.45
2023-04-18T23:57:21.169Z,13.85
2023-04-18T23:59:48.800Z,14.23
